Time;durP1;ratioP1;P1;durP2;ratioP2;P2;SDS_P1;SDS_P2;PMS_P1;PMS_P2;Temp;Humidity;BMP_temperature;BMP_pressure;BME280_temperature;BME280_humidity;BME280_pressure;Samples;Min_cycle;Max_cycle;Signal;HPM_P1;HPM_P2
2021/08/23 00:00:02;;;;;;;10.90;4.57;;;16.50;99.90;;;;;;5044912;28;20391;-73
2021/08/23 00:02:47;;;;;;;6.20;4.40;;;16.50;99.90;;;;;;5049570;28;20470;-73
2021/08/23 00:05:33;;;;;;;10.50;4.37;;;16.50;99.90;;;;;;5031207;28;20456;-73
2021/08/23 00:08:18;;;;;;;7.00;3.50;;;16.50;99.90;;;;;;5035804;28;20426;-73
2021/08/23 00:11:06;;;;;;;7.83;4.30;;;16.60;99.90;;;;;;5054611;28;20485;-73
2021/08/23 00:13:51;;;;;;;10.07;4.40;;;16.60;99.90;;;;;;5051590;28;20481;-73
2021/08/23 00:16:37;;;;;;;10.20;4.83;;;16.50;99.90;;;;;;5048725;28;20797;-73
2021/08/23 00:19:23;;;;;;;7.73;4.03;;;16.60;99.90;;;;;;5042783;28;20811;-72
2021/08/23 00:22:21;;;;;;;13.73;4.73;;;16.60;99.90;;;;;;5037981;28;20424;-73
2021/08/23 00:25:07;;;;;;;9.30;4.07;;;16.60;99.90;;;;;;5036662;28;20439;-72
2021/08/23 00:27:54;;;;;;;9.43;4.40;;;16.60;99.90;;;;;;5041820;28;20452;-73
2021/08/23 00:30:40;;;;;;;7.40;4.53;;;16.70;99.90;;;;;;5042367;28;20530;-73
2021/08/23 00:33:26;;;;;;;12.83;4.63;;;16.70;99.90;;;;;;5050330;28;20504;-73
2021/08/23 00:36:11;;;;;;;7.40;4.70;;;16.80;99.90;;;;;;5048982;28;20477;-73
2021/08/23 00:38:57;;;;;;;8.33;4.40;;;16.70;99.90;;;;;;5051097;28;20420;-73
2021/08/23 00:41:43;;;;;;;6.80;4.20;;;16.70;99.90;;;;;;5045895;28;21264;-73
2021/08/23 00:44:31;;;;;;;10.43;4.00;;;16.70;99.90;;;;;;5041302;28;20560;-73
2021/08/23 00:47:17;;;;;;;4.07;3.67;;;16.70;99.90;;;;;;5041517;28;20448;-74
2021/08/23 00:50:03;;;;;;;7.80;3.37;;;16.80;99.90;;;;;;5049183;28;20968;-73
2021/08/23 00:52:49;;;;;;;6.50;4.20;;;16.80;99.90;;;;;;5051004;28;20445;-73
2021/08/23 00:55:35;;;;;;;4.80;3.50;;;16.80;99.90;;;;;;5030827;28;20509;-73
2021/08/23 00:58:21;;;;;;;9.20;4.50;;;16.90;99.90;;;;;;5040726;28;20428;-73
2021/08/23 01:01:13;;;;;;;10.07;4.03;;;16.90;99.90;;;;;;5040153;28;20410;-72
2021/08/23 01:04:05;;;;;;;8.00;3.87;;;16.90;99.90;;;;;;5047109;28;20495;-73
2021/08/23 01:06:51;;;;;;;6.30;3.60;;;16.90;99.90;;;;;;5042884;28;20449;-72
2021/08/23 01:09:40;;;;;;;8.27;4.13;;;17.00;99.90;;;;;;5050263;28;20418;-73
2021/08/23 01:12:27;;;;;;;11.80;5.20;;;16.90;99.90;;;;;;5047514;28;20465;-73
2021/08/23 01:15:13;;;;;;;10.60;4.17;;;16.90;99.90;;;;;;5044348;28;20770;-72
2021/08/23 01:18:00;;;;;;;13.20;3.77;;;16.90;99.90;;;;;;5041297;28;20434;-73
2021/08/23 01:20:47;;;;;;;9.83;3.80;;;16.90;99.90;;;;;;5046726;28;20444;-73
2021/08/23 01:23:34;;;;;;;11.53;4.27;;;17.00;99.90;;;;;;5043762;28;20453;-71
2021/08/23 01:26:24;;;;;;;5.60;3.40;;;17.00;99.90;;;;;;5041001;28;20476;-73
2021/08/23 01:29:17;;;;;;;8.90;3.80;;;17.00;99.90;;;;;;5038446;28;20498;-73
2021/08/23 01:32:12;;;;;;;11.70;3.90;;;17.00;99.90;;;;;;5041074;28;20439;-74
2021/08/23 01:34:59;;;;;;;8.20;4.57;;;17.00;99.90;;;;;;5042668;28;20817;-73
2021/08/23 01:37:45;;;;;;;4.83;4.20;;;17.00;99.90;;;;;;5046725;28;20496;-73
2021/08/23 01:40:31;;;;;;;10.33;4.10;;;17.00;99.90;;;;;;5050649;28;20423;-73
2021/08/23 01:43:16;;;;;;;13.83;4.40;;;16.90;99.90;;;;;;5037181;28;20820;-73
2021/08/23 01:46:03;;;;;;;7.23;4.20;;;16.90;99.90;;;;;;5049140;28;20436;-73
2021/08/23 01:48:50;;;;;;;13.33;4.70;;;17.00;99.90;;;;;;5049854;28;21140;-73
2021/08/23 01:51:36;;;;;;;6.93;4.53;;;16.90;99.90;;;;;;5042220;28;20517;-73
2021/08/23 01:54:22;;;;;;;6.60;4.10;;;16.90;99.90;;;;;;5053747;28;20452;-72
2021/08/23 01:57:08;;;;;;;15.23;3.93;;;16.90;99.90;;;;;;5044420;28;20572;-72
2021/08/23 01:59:53;;;;;;;13.30;4.13;;;16.80;99.90;;;;;;5052185;28;20976;-73
2021/08/23 02:02:39;;;;;;;6.37;4.50;;;16.80;99.90;;;;;;5044305;28;20935;-73
2021/08/23 02:05:28;;;;;;;13.60;5.13;;;16.70;99.90;;;;;;5073923;22;20499;-75
2021/08/23 02:08:14;;;;;;;5.30;4.13;;;16.80;99.90;;;;;;5053704;28;20971;-74
2021/08/23 02:11:00;;;;;;;7.80;4.70;;;16.80;99.90;;;;;;5047465;28;20803;-74
2021/08/23 02:13:45;;;;;;;8.63;4.57;;;16.80;99.90;;;;;;5046285;28;20491;-74
2021/08/23 02:16:31;;;;;;;7.57;4.37;;;16.80;99.90;;;;;;5048028;28;20476;-74
2021/08/23 02:19:17;;;;;;;6.80;3.60;;;16.90;99.90;;;;;;5046986;28;20395;-74
2021/08/23 02:22:05;;;;;;;8.70;4.03;;;16.90;99.90;;;;;;5053394;28;20403;-72
2021/08/23 02:24:51;;;;;;;11.10;4.43;;;16.90;99.90;;;;;;5053242;28;20452;-73
2021/08/23 02:27:37;;;;;;;10.93;4.03;;;16.80;99.90;;;;;;5053164;28;20475;-73
2021/08/23 02:30:23;;;;;;;14.93;5.17;;;16.80;99.90;;;;;;5052385;28;20971;-74
2021/08/23 02:33:09;;;;;;;13.10;5.37;;;16.90;99.90;;;;;;5053032;28;20482;-73
2021/08/23 02:35:55;;;;;;;11.50;5.07;;;16.90;99.90;;;;;;5051765;28;20528;-73
2021/08/23 02:38:42;;;;;;;8.83;5.17;;;16.90;99.90;;;;;;5049446;28;20425;-73
2021/08/23 02:41:28;;;;;;;8.87;4.20;;;16.90;99.90;;;;;;5050075;28;20441;-72
2021/08/23 02:44:13;;;;;;;11.83;5.33;;;17.00;99.90;;;;;;5048502;28;20432;-73
2021/08/23 02:46:59;;;;;;;7.47;4.57;;;17.00;99.90;;;;;;5053278;28;20391;-72
2021/08/23 02:49:45;;;;;;;9.20;4.50;;;17.00;99.90;;;;;;5053278;28;20945;-74
2021/08/23 02:52:31;;;;;;;7.10;5.00;;;17.00;99.90;;;;;;5052882;28;20466;-73
2021/08/23 02:55:17;;;;;;;9.73;4.23;;;17.00;99.90;;;;;;5047955;28;20479;-73
2021/08/23 02:58:03;;;;;;;8.57;4.70;;;16.90;99.90;;;;;;5047419;28;20453;-73
2021/08/23 03:00:49;;;;;;;12.13;5.63;;;16.80;99.90;;;;;;5050124;28;21009;-74
2021/08/23 03:03:35;;;;;;;13.63;5.27;;;16.80;99.90;;;;;;5045582;28;20420;-73
2021/08/23 03:06:21;;;;;;;11.20;6.40;;;16.70;99.90;;;;;;5052357;28;20503;-74
2021/08/23 03:09:07;;;;;;;11.27;5.80;;;16.60;99.90;;;;;;5052702;28;20522;-74
2021/08/23 03:11:54;;;;;;;14.70;5.17;;;16.70;99.90;;;;;;5053206;28;20567;-74
2021/08/23 03:14:40;;;;;;;8.70;4.60;;;16.70;99.90;;;;;;5044219;28;20465;-74
2021/08/23 03:17:26;;;;;;;17.10;5.50;;;16.70;99.90;;;;;;5044400;28;20566;-73
2021/08/23 03:20:12;;;;;;;12.83;5.33;;;16.70;99.90;;;;;;5048661;28;20431;-73
2021/08/23 03:22:58;;;;;;;10.07;4.70;;;16.70;99.90;;;;;;5045970;28;20467;-73
2021/08/23 03:25:43;;;;;;;13.00;5.87;;;16.70;99.90;;;;;;5044068;28;20771;-71
2021/08/23 03:28:30;;;;;;;7.57;5.33;;;16.60;99.90;;;;;;5045829;28;20461;-73
2021/08/23 03:31:16;;;;;;;7.57;5.57;;;16.60;99.90;;;;;;5049938;28;20472;-74
2021/08/23 03:34:02;;;;;;;8.20;5.07;;;16.60;99.90;;;;;;5043584;28;20472;-73
2021/08/23 03:36:48;;;;;;;10.77;5.97;;;16.60;99.90;;;;;;5046723;28;20824;-74
2021/08/23 03:39:33;;;;;;;7.73;5.53;;;16.50;99.90;;;;;;5044858;28;20443;-73
2021/08/23 03:42:19;;;;;;;9.50;6.40;;;16.50;99.90;;;;;;5044779;28;20440;-72
2021/08/23 03:45:07;;;;;;;14.33;6.70;;;16.60;99.90;;;;;;5043821;28;20835;-74
2021/08/23 03:47:53;;;;;;;10.80;5.37;;;16.60;99.90;;;;;;5049726;28;20431;-73
2021/08/23 03:50:39;;;;;;;10.40;6.23;;;16.60;99.90;;;;;;5048398;28;20999;-74
2021/08/23 03:53:24;;;;;;;8.80;6.23;;;16.70;99.90;;;;;;5052063;28;20432;-72
2021/08/23 03:56:10;;;;;;;9.33;5.90;;;16.80;99.90;;;;;;5041140;28;20484;-73
2021/08/23 03:58:57;;;;;;;8.70;6.40;;;16.80;99.90;;;;;;5039138;28;20476;-74
2021/08/23 04:01:44;;;;;;;7.53;5.20;;;16.70;99.90;;;;;;5045315;28;20798;-73
2021/08/23 04:04:29;;;;;;;10.03;6.00;;;16.70;99.90;;;;;;5037776;28;20504;-70
2021/08/23 04:07:15;;;;;;;11.33;6.53;;;16.60;99.90;;;;;;5043191;28;20516;-73
2021/08/23 04:10:01;;;;;;;7.60;5.50;;;16.50;99.90;;;;;;5052478;28;20447;-73
2021/08/23 04:12:47;;;;;;;7.97;5.50;;;16.60;99.90;;;;;;5046253;28;20575;-73
2021/08/23 04:15:32;;;;;;;10.10;6.40;;;16.70;99.90;;;;;;5049023;28;20591;-73
2021/08/23 04:18:19;;;;;;;6.97;5.37;;;16.80;99.90;;;;;;5044174;28;20444;-74
2021/08/23 04:21:05;;;;;;;10.20;6.10;;;16.80;99.90;;;;;;5046619;28;20451;-73
2021/08/23 04:23:50;;;;;;;9.30;6.00;;;16.80;99.90;;;;;;5044949;28;20515;-73
2021/08/23 04:26:36;;;;;;;14.87;6.50;;;16.90;99.90;;;;;;5041813;28;20971;-72
2021/08/23 04:29:22;;;;;;;9.17;5.93;;;16.90;99.90;;;;;;5046314;28;20419;-73
2021/08/23 04:32:09;;;;;;;12.20;5.07;;;16.90;99.90;;;;;;5045060;28;20458;-73
2021/08/23 04:34:56;;;;;;;12.27;5.33;;;16.90;99.90;;;;;;5050435;28;20423;-74
2021/08/23 04:37:41;;;;;;;6.70;5.10;;;17.00;99.90;;;;;;5047712;28;20451;-73
2021/08/23 04:40:27;;;;;;;23.17;6.30;;;17.00;99.90;;;;;;5048114;28;20445;-73
2021/08/23 04:43:13;;;;;;;10.80;5.37;;;17.00;99.90;;;;;;5049530;28;20454;-72
2021/08/23 04:45:59;;;;;;;6.67;5.20;;;17.10;99.90;;;;;;5038404;28;21022;-73
2021/08/23 04:48:45;;;;;;;9.93;5.43;;;17.00;99.90;;;;;;5048467;28;20455;-73
2021/08/23 04:51:32;;;;;;;13.53;5.57;;;17.10;99.90;;;;;;5043505;28;20485;-73
2021/08/23 04:54:18;;;;;;;9.63;4.90;;;17.10;99.90;;;;;;5037644;28;20423;-73
2021/08/23 04:57:04;;;;;;;9.97;6.40;;;17.10;99.90;;;;;;5049234;28;20471;-73
2021/08/23 04:59:50;;;;;;;8.60;5.57;;;17.00;99.90;;;;;;5047956;28;20421;-73
2021/08/23 05:02:35;;;;;;;11.73;5.90;;;17.00;99.90;;;;;;5049725;28;20439;-73
2021/08/23 05:05:21;;;;;;;10.07;5.60;;;17.10;99.90;;;;;;5043599;28;20557;-73
2021/08/23 05:08:08;;;;;;;9.80;5.90;;;17.10;99.90;;;;;;5045254;28;20586;-73
2021/08/23 05:10:54;;;;;;;9.47;6.40;;;17.10;99.90;;;;;;5048941;28;20417;-73
2021/08/23 05:13:39;;;;;;;10.97;6.63;;;17.20;99.90;;;;;;5046477;28;20457;-73
2021/08/23 05:16:25;;;;;;;8.40;5.33;;;17.20;99.90;;;;;;5041977;28;20440;-74
2021/08/23 05:19:11;;;;;;;7.63;5.90;;;17.10;99.90;;;;;;5045392;28;20999;-74
2021/08/23 05:21:56;;;;;;;20.33;6.37;;;17.10;99.90;;;;;;5048848;28;20567;-73
2021/08/23 05:24:43;;;;;;;10.27;6.43;;;17.00;99.90;;;;;;5049928;28;20451;-72
2021/08/23 05:27:29;;;;;;;14.50;5.53;;;17.00;99.90;;;;;;5047699;28;20447;-71
2021/08/23 05:30:15;;;;;;;9.90;6.60;;;17.00;99.90;;;;;;5051581;28;20460;-73
2021/08/23 05:33:01;;;;;;;5.57;5.07;;;17.10;99.90;;;;;;5052410;28;20474;-73
2021/08/23 05:35:46;;;;;;;8.90;6.10;;;17.10;99.90;;;;;;5049730;28;21078;-74
2021/08/23 05:38:32;;;;;;;11.60;6.47;;;17.10;99.90;;;;;;5052385;28;20506;-73
2021/08/23 05:41:19;;;;;;;7.67;6.13;;;17.20;99.90;;;;;;5056466;28;20430;-72
2021/08/23 05:44:05;;;;;;;9.40;5.43;;;17.30;99.90;;;;;;5054277;28;20399;-72
2021/08/23 05:46:50;;;;;;;9.60;7.00;;;17.40;99.90;;;;;;5050841;28;20454;-72
2021/08/23 05:49:36;;;;;;;9.40;6.30;;;17.50;99.90;;;;;;5051885;28;20456;-73
2021/08/23 05:52:22;;;;;;;7.77;5.70;;;17.50;99.90;;;;;;5052383;28;20464;-73
2021/08/23 05:55:09;;;;;;;6.70;5.80;;;17.50;99.90;;;;;;5049537;28;20544;-74
2021/08/23 05:57:56;;;;;;;11.23;5.77;;;17.50;99.90;;;;;;5046855;28;20436;-73
2021/08/23 06:00:41;;;;;;;14.47;6.40;;;17.60;99.90;;;;;;5049922;28;20456;-73
2021/08/23 06:03:27;;;;;;;11.50;5.53;;;17.70;99.90;;;;;;5054008;28;20473;-73
2021/08/23 06:06:14;;;;;;;11.80;5.40;;;17.70;99.90;;;;;;5053174;28;20583;-73
2021/08/23 06:08:59;;;;;;;8.37;5.50;;;17.70;99.90;;;;;;5052137;28;20460;-73
2021/08/23 06:11:45;;;;;;;10.57;6.00;;;17.70;99.90;;;;;;5051769;28;20442;-74
2021/08/23 06:14:32;;;;;;;8.63;5.77;;;17.70;99.90;;;;;;5053402;28;20476;-73
2021/08/23 06:17:18;;;;;;;19.30;6.60;;;17.70;99.90;;;;;;5050972;28;20476;-74
2021/08/23 06:20:04;;;;;;;8.33;5.77;;;17.80;99.90;;;;;;5053685;28;20425;-73
2021/08/23 06:22:51;;;;;;;11.00;5.80;;;17.80;99.90;;;;;;5048588;28;20448;-73
2021/08/23 06:25:37;;;;;;;9.83;6.60;;;17.80;99.90;;;;;;5041100;28;20623;-74
2021/08/23 06:28:23;;;;;;;13.20;6.13;;;17.90;99.90;;;;;;5043988;28;20453;-74
2021/08/23 06:31:09;;;;;;;8.63;6.03;;;17.90;99.90;;;;;;5046903;28;20560;-73
2021/08/23 06:33:55;;;;;;;14.50;6.27;;;17.90;99.90;;;;;;5051987;28;21144;-73
2021/08/23 06:36:42;;;;;;;8.23;5.50;;;17.90;99.90;;;;;;5051946;28;20842;-74
2021/08/23 06:39:28;;;;;;;15.43;6.27;;;17.90;99.90;;;;;;5052324;28;21224;-73
2021/08/23 06:42:13;;;;;;;13.90;6.80;;;18.00;99.90;;;;;;5052737;28;20453;-73
2021/08/23 06:44:59;;;;;;;15.53;6.57;;;18.00;99.90;;;;;;5038978;28;20473;-73
2021/08/23 06:47:46;;;;;;;14.23;6.83;;;18.00;99.90;;;;;;5050635;28;20476;-73
2021/08/23 06:50:32;;;;;;;11.90;6.60;;;18.00;99.90;;;;;;5051843;28;20833;-72
2021/08/23 06:53:17;;;;;;;8.87;6.70;;;18.10;99.90;;;;;;5046525;28;20473;-73
2021/08/23 06:56:03;;;;;;;9.90;6.93;;;18.10;99.90;;;;;;5043997;28;20465;-73
2021/08/23 06:58:49;;;;;;;9.20;6.27;;;18.20;99.90;;;;;;5044912;28;20917;-72
2021/08/23 07:01:34;;;;;;;9.83;6.47;;;18.20;99.90;;;;;;5049219;28;20836;-73
2021/08/23 07:04:22;;;;;;;10.67;6.80;;;18.30;99.90;;;;;;5040443;28;20484;-73
2021/08/23 07:07:08;;;;;;;6.97;5.73;;;18.40;99.90;;;;;;5040086;28;20424;-73
2021/08/23 07:09:53;;;;;;;9.27;7.53;;;18.40;99.90;;;;;;5055817;28;20495;-75
2021/08/23 07:12:39;;;;;;;9.30;6.40;;;18.50;99.90;;;;;;5048051;28;20466;-73
2021/08/23 07:15:25;;;;;;;15.30;7.33;;;18.60;99.90;;;;;;5051258;28;20534;-74
2021/08/23 07:18:10;;;;;;;7.73;5.40;;;18.50;99.90;;;;;;5047498;28;20452;-73
2021/08/23 07:20:58;;;;;;;12.43;7.10;;;18.50;99.90;;;;;;5052593;28;20459;-73
2021/08/23 07:23:44;;;;;;;8.77;6.90;;;18.30;99.90;;;;;;5048914;28;20430;-72
2021/08/23 07:26:29;;;;;;;12.57;7.77;;;18.20;99.90;;;;;;5045907;28;20522;-73
2021/08/23 07:29:15;;;;;;;8.13;7.30;;;18.00;99.90;;;;;;5050194;28;20815;-73
2021/08/23 07:32:01;;;;;;;10.23;8.00;;;17.90;99.90;;;;;;5047212;28;20464;-73
2021/08/23 07:34:47;;;;;;;22.37;8.50;;;17.80;99.90;;;;;;5051803;28;20429;-74
2021/08/23 07:37:37;;;;;;;9.30;8.00;;;17.90;99.90;;;;;;5051338;28;20460;-73
2021/08/23 07:40:22;;;;;;;9.37;7.53;;;17.90;99.90;;;;;;5047240;28;20432;-73
2021/08/23 07:43:08;;;;;;;9.63;7.77;;;17.90;99.90;;;;;;5051259;28;20536;-73
2021/08/23 07:45:54;;;;;;;12.73;7.20;;;18.10;99.90;;;;;;5041825;28;20472;-73
2021/08/23 07:48:39;;;;;;;8.40;7.33;;;18.40;99.90;;;;;;5042988;28;20458;-73
2021/08/23 07:51:25;;;;;;;11.07;8.00;;;18.40;99.90;;;;;;5042872;28;20524;-73
2021/08/23 07:54:15;;;;;;;12.20;6.57;;;18.40;99.90;;;;;;5038836;28;20444;-73
2021/08/23 07:57:01;;;;;;;8.27;6.70;;;18.50;99.90;;;;;;5033373;28;20780;-73
2021/08/23 07:59:46;;;;;;;8.30;7.50;;;18.50;99.90;;;;;;5048851;28;20457;-73
2021/08/23 08:02:31;;;;;;;10.07;7.73;;;18.50;99.90;;;;;;5047181;28;20566;-73
2021/08/23 08:05:17;;;;;;;11.40;7.43;;;18.60;99.90;;;;;;5045776;28;20539;-74
2021/08/23 08:08:03;;;;;;;11.37;8.10;;;18.60;99.90;;;;;;5059453;22;20460;-72
2021/08/23 08:10:50;;;;;;;10.23;8.10;;;18.60;99.90;;;;;;5049585;28;20424;-73
2021/08/23 08:13:37;;;;;;;9.30;6.80;;;18.50;99.90;;;;;;5049254;28;20463;-73
2021/08/23 08:16:22;;;;;;;9.17;8.27;;;18.50;99.90;;;;;;5042631;28;20547;-73
2021/08/23 08:19:08;;;;;;;10.47;7.83;;;18.50;99.90;;;;;;5042660;28;20997;-71
2021/08/23 08:21:53;;;;;;;9.27;7.73;;;18.60;99.90;;;;;;5050150;28;20456;-72
2021/08/23 08:24:39;;;;;;;10.30;6.97;;;18.60;99.90;;;;;;5047087;28;20430;-73
2021/08/23 08:27:26;;;;;;;10.70;7.23;;;18.50;99.90;;;;;;5048460;28;20480;-73
2021/08/23 08:30:15;;;;;;;17.60;7.00;;;18.40;99.90;;;;;;5045523;28;20522;-72
2021/08/23 08:33:01;;;;;;;11.57;7.97;;;18.40;99.90;;;;;;5049310;28;20476;-73
2021/08/23 08:35:46;;;;;;;8.70;7.60;;;18.50;99.90;;;;;;5046193;28;20457;-72
2021/08/23 08:38:32;;;;;;;13.90;7.47;;;18.50;99.90;;;;;;5044866;28;20528;-72
2021/08/23 08:41:18;;;;;;;7.73;6.90;;;18.70;99.90;;;;;;5048709;28;20806;-72
2021/08/23 08:44:05;;;;;;;8.63;6.60;;;18.80;99.90;;;;;;5046109;28;20494;-72
2021/08/23 08:46:52;;;;;;;11.33;6.13;;;18.90;99.90;;;;;;5046018;28;20424;-72
2021/08/23 08:49:39;;;;;;;9.60;7.63;;;18.90;99.90;;;;;;5038253;28;20420;-72
2021/08/23 08:52:26;;;;;;;10.90;7.20;;;19.00;99.90;;;;;;5050770;28;20473;-72
2021/08/23 08:55:12;;;;;;;10.33;7.80;;;19.10;99.90;;;;;;5049728;28;20499;-71
2021/08/23 08:57:58;;;;;;;10.27;7.03;;;19.10;99.90;;;;;;5052263;28;20464;-72
2021/08/23 09:00:45;;;;;;;8.43;7.53;;;19.20;99.90;;;;;;5043259;28;20584;-72
2021/08/23 09:03:31;;;;;;;9.30;7.50;;;19.20;99.90;;;;;;5057193;28;20852;-72
2021/08/23 09:06:16;;;;;;;8.40;6.77;;;19.30;99.90;;;;;;5056652;28;20411;-72
2021/08/23 09:09:02;;;;;;;10.90;7.90;;;19.40;99.90;;;;;;5057194;28;20472;-72
2021/08/23 09:11:56;;;;;;;8.07;7.27;;;19.40;99.90;;;;;;5053836;28;20443;-72
2021/08/23 09:14:50;;;;;;;8.87;6.43;;;19.50;99.90;;;;;;5057018;28;20669;-72
2021/08/23 09:17:37;;;;;;;10.80;7.37;;;19.50;99.90;;;;;;5057016;28;20437;-72
2021/08/23 09:20:23;;;;;;;8.13;6.80;;;19.50;99.90;;;;;;5057163;28;20420;-72
2021/08/23 09:23:14;;;;;;;15.63;7.70;;;19.60;99.90;;;;;;5056447;28;20904;-72
2021/08/23 09:26:06;;;;;;;11.30;7.47;;;19.60;99.90;;;;;;5055800;28;20810;-71
2021/08/23 09:28:57;;;;;;;7.57;6.87;;;19.60;99.90;;;;;;5056921;28;20422;-72
2021/08/23 09:31:44;;;;;;;9.70;7.00;;;19.60;99.90;;;;;;5055041;28;20806;-72
2021/08/23 09:34:32;;;;;;;7.93;7.13;;;19.60;99.90;;;;;;5056007;28;20547;-71
2021/08/23 09:37:18;;;;;;;12.80;7.00;;;19.50;99.90;;;;;;5056863;28;20589;-72
2021/08/23 09:40:11;;;;;;;14.33;7.23;;;19.50;99.90;;;;;;5060462;28;20429;-72
2021/08/23 09:42:58;;;;;;;7.73;5.70;;;19.60;99.90;;;;;;5056526;28;20437;-71
2021/08/23 09:45:48;;;;;;;15.93;7.00;;;19.70;99.90;;;;;;5056703;28;20519;-72
2021/08/23 09:48:37;;;;;;;8.73;6.30;;;19.80;99.90;;;;;;5056961;28;20462;-74
2021/08/23 09:51:31;;;;;;;8.07;6.93;;;19.80;99.90;;;;;;5056954;28;20475;-72
2021/08/23 09:54:19;;;;;;;9.63;7.90;;;19.80;99.90;;;;;;5056692;28;20469;-72
2021/08/23 09:57:05;;;;;;;8.00;7.20;;;19.80;99.90;;;;;;5056498;28;20456;-72
2021/08/23 09:59:51;;;;;;;9.20;6.93;;;19.80;99.90;;;;;;5056790;28;20535;-73
2021/08/23 10:02:41;;;;;;;8.20;7.37;;;20.00;99.90;;;;;;5056929;28;20902;-73
2021/08/23 10:05:28;;;;;;;9.77;7.30;;;20.10;99.90;;;;;;5056360;28;20430;-73
2021/08/23 10:08:17;;;;;;;10.60;7.13;;;20.20;99.90;;;;;;5054545;28;20473;-73
2021/08/23 10:11:03;;;;;;;9.03;6.60;;;20.00;99.90;;;;;;5064114;28;20920;-73
2021/08/23 10:13:48;;;;;;;10.83;6.90;;;20.20;99.90;;;;;;5059502;28;20621;-72
2021/08/23 10:16:36;;;;;;;12.50;6.80;;;20.30;99.90;;;;;;5052883;28;20519;-73
2021/08/23 10:19:23;;;;;;;7.77;6.70;;;20.50;99.90;;;;;;5053555;28;20435;-73
2021/08/23 10:22:09;;;;;;;9.27;8.27;;;20.50;99.90;;;;;;5046389;28;20432;-73
2021/08/23 10:24:56;;;;;;;8.30;7.50;;;20.50;99.90;;;;;;5051720;28;20426;-73
2021/08/23 10:27:42;;;;;;;10.50;7.43;;;20.50;99.90;;;;;;5052990;28;20449;-73
2021/08/23 10:30:28;;;;;;;8.23;7.30;;;20.60;99.90;;;;;;5053277;28;20553;-73
2021/08/23 10:33:16;;;;;;;7.20;5.90;;;20.50;99.90;;;;;;5052895;28;20456;-73
2021/08/23 10:36:02;;;;;;;8.10;6.07;;;20.50;99.90;;;;;;5035879;28;20998;-73
2021/08/23 10:38:49;;;;;;;7.57;6.80;;;20.40;99.90;;;;;;5051742;28;20534;-73
2021/08/23 10:41:37;;;;;;;6.80;6.10;;;20.30;99.90;;;;;;5049919;28;20500;-72
2021/08/23 10:44:28;;;;;;;10.83;7.20;;;20.20;99.90;;;;;;5052969;28;20392;-73
2021/08/23 10:47:15;;;;;;;7.97;7.17;;;20.10;99.90;;;;;;5052627;28;20499;-73
2021/08/23 10:50:01;;;;;;;9.97;7.70;;;20.00;99.90;;;;;;5052801;28;20767;-73
2021/08/23 10:52:48;;;;;;;11.70;7.93;;;20.00;99.90;;;;;;5052398;28;20475;-73
2021/08/23 10:55:37;;;;;;;9.90;9.00;;;20.10;99.90;;;;;;5051530;28;20433;-73
2021/08/23 10:58:30;;;;;;;9.73;8.47;;;20.20;99.90;;;;;;5047850;28;20675;-73
2021/08/23 11:01:19;;;;;;;12.03;8.90;;;20.40;99.90;;;;;;5044262;28;20511;-73
2021/08/23 11:04:07;;;;;;;7.87;6.60;;;20.80;99.90;;;;;;5038188;28;20837;-73
2021/08/23 11:06:52;;;;;;;8.87;7.97;;;21.20;99.90;;;;;;5042926;28;20456;-73
2021/08/23 11:09:40;;;;;;;9.97;6.70;;;21.50;99.90;;;;;;5047100;28;20437;-72
2021/08/23 11:12:26;;;;;;;8.40;6.10;;;21.70;99.90;;;;;;5048734;28;20761;-73
2021/08/23 11:15:17;;;;;;;8.87;5.23;;;22.00;99.90;;;;;;5046341;28;20466;-73
2021/08/23 11:18:08;;;;;;;7.47;6.07;;;22.30;99.90;;;;;;5046434;28;20489;-73
2021/08/23 11:20:55;;;;;;;8.93;5.63;;;22.30;99.90;;;;;;5049675;28;20459;-74
2021/08/23 11:23:43;;;;;;;9.07;6.57;;;22.10;99.90;;;;;;5049694;28;20587;-73
2021/08/23 11:26:29;;;;;;;9.30;5.87;;;22.00;99.90;;;;;;5042958;28;20512;-75
2021/08/23 11:29:15;;;;;;;9.37;5.50;;;22.00;99.90;;;;;;5048668;28;20447;-73
2021/08/23 11:32:05;;;;;;;7.27;5.80;;;22.00;99.90;;;;;;5043474;28;20844;-73
2021/08/23 11:34:53;;;;;;;5.73;4.93;;;22.10;99.90;;;;;;5031744;28;20440;-73
2021/08/23 11:37:40;;;;;;;5.77;5.00;;;21.90;99.90;;;;;;5050380;28;21001;-73
2021/08/23 11:40:26;;;;;;;8.13;5.00;;;21.90;99.90;;;;;;5047172;28;20460;-74
2021/08/23 11:43:12;;;;;;;7.20;4.30;;;22.00;99.90;;;;;;5051473;28;20514;-73
2021/08/23 11:45:59;;;;;;;6.20;4.50;;;21.90;99.90;;;;;;5046975;28;20570;-74
2021/08/23 11:48:54;;;;;;;5.60;3.77;;;21.90;99.90;;;;;;5049276;28;20525;-74
2021/08/23 11:51:40;;;;;;;5.90;4.00;;;21.90;99.90;;;;;;5047675;28;20584;-74
2021/08/23 11:54:26;;;;;;;6.13;3.80;;;21.80;99.90;;;;;;5038733;28;21472;-73
2021/08/23 11:57:11;;;;;;;5.03;4.40;;;21.80;99.90;;;;;;5045439;28;20801;-73
2021/08/23 11:59:59;;;;;;;6.77;5.00;;;21.70;99.90;;;;;;5050326;28;20509;-74
2021/08/23 12:02:44;;;;;;;5.93;3.97;;;21.70;99.90;;;;;;5049409;28;20509;-74
2021/08/23 12:05:37;;;;;;;6.53;4.80;;;21.70;99.90;;;;;;5043224;28;20418;-74
2021/08/23 12:08:24;;;;;;;10.60;4.07;;;21.90;99.90;;;;;;5043887;28;20593;-73
2021/08/23 12:11:12;;;;;;;5.17;4.10;;;22.40;99.90;;;;;;5052230;28;20452;-73
2021/08/23 12:13:57;;;;;;;5.67;4.43;;;22.80;99.90;;;;;;5042280;28;20470;-74
2021/08/23 12:16:44;;;;;;;7.30;4.10;;;22.90;99.90;;;;;;5049349;28;20458;-74
2021/08/23 12:19:30;;;;;;;5.80;4.50;;;22.90;99.90;;;;;;5051376;28;21019;-74
2021/08/23 12:22:21;;;;;;;5.17;4.17;;;22.70;99.90;;;;;;5048947;28;20458;-73
2021/08/23 12:25:08;;;;;;;7.70;3.80;;;22.20;99.90;;;;;;5044733;28;20950;-74
2021/08/23 12:27:53;;;;;;;5.73;4.10;;;21.90;99.90;;;;;;5050742;28;20445;-74
2021/08/23 12:30:39;;;;;;;7.50;3.90;;;21.80;99.90;;;;;;5049948;28;21090;-74
2021/08/23 12:33:26;;;;;;;8.23;3.53;;;22.10;99.90;;;;;;5046889;28;20485;-74
2021/08/23 12:36:12;;;;;;;4.80;4.23;;;22.30;99.90;;;;;;5049798;28;20465;-74
2021/08/23 12:38:59;;;;;;;5.30;3.73;;;22.40;99.90;;;;;;5031406;28;20825;-74
2021/08/23 12:41:47;;;;;;;5.90;4.13;;;22.40;99.90;;;;;;5049159;28;20525;-74
2021/08/23 12:44:33;;;;;;;9.03;3.97;;;22.50;99.90;;;;;;5038126;28;20611;-74
2021/08/23 12:47:19;;;;;;;6.57;4.20;;;22.80;99.90;;;;;;5037733;28;20559;-73
2021/08/23 12:50:06;;;;;;;4.23;3.40;;;22.70;99.90;;;;;;5043725;28;20590;-74
2021/08/23 12:52:52;;;;;;;11.33;4.47;;;22.50;99.90;;;;;;5040426;28;20459;-74
2021/08/23 12:55:39;;;;;;;4.67;3.83;;;22.40;99.90;;;;;;5048702;28;20541;-74
2021/08/23 12:58:25;;;;;;;5.53;3.93;;;22.20;99.90;;;;;;5048775;28;20433;-74
2021/08/23 13:01:12;;;;;;;5.80;3.90;;;22.20;99.90;;;;;;5042734;28;21238;-74
2021/08/23 13:03:58;;;;;;;5.93;3.70;;;22.10;99.90;;;;;;5049395;28;20489;-73
2021/08/23 13:06:44;;;;;;;4.67;3.50;;;22.00;99.90;;;;;;5046818;28;20828;-74
2021/08/23 13:09:30;;;;;;;6.80;4.33;;;22.00;99.90;;;;;;5048093;28;20458;-73
2021/08/23 13:12:17;;;;;;;6.40;4.07;;;21.90;99.90;;;;;;5043977;28;20482;-73
2021/08/23 13:15:04;;;;;;;4.43;4.00;;;22.00;99.90;;;;;;5047341;28;20497;-74
2021/08/23 13:17:49;;;;;;;5.60;3.90;;;22.10;99.90;;;;;;5047276;28;20497;-73
2021/08/23 13:20:37;;;;;;;3.47;3.17;;;22.10;99.90;;;;;;5046683;28;20453;-73
2021/08/23 13:23:22;;;;;;;4.50;3.90;;;22.20;99.90;;;;;;5045216;28;20466;-73
2021/08/23 13:26:08;;;;;;;4.60;3.43;;;22.20;99.90;;;;;;5042175;28;20501;-73
2021/08/23 13:28:56;;;;;;;4.80;4.00;;;22.20;99.90;;;;;;5047985;28;20512;-72
2021/08/23 13:31:42;;;;;;;4.83;4.20;;;22.50;99.90;;;;;;5041672;28;20412;-74
2021/08/23 13:34:28;;;;;;;4.70;3.97;;;23.00;99.90;;;;;;5047573;28;20954;-74
2021/08/23 13:37:14;;;;;;;8.27;4.70;;;23.20;99.90;;;;;;5046638;28;20536;-73
2021/08/23 13:39:59;;;;;;;5.00;4.10;;;23.30;99.90;;;;;;5048437;28;20983;-73
2021/08/23 13:42:45;;;;;;;4.47;3.70;;;23.60;99.90;;;;;;5047423;28;20454;-74
2021/08/23 13:45:32;;;;;;;5.93;4.10;;;24.00;99.90;;;;;;5052413;28;20435;-73
2021/08/23 13:48:18;;;;;;;6.30;3.67;;;24.50;99.90;;;;;;5052581;28;20466;-74
2021/08/23 13:51:04;;;;;;;6.60;3.70;;;24.80;97.70;;;;;;5052047;28;20561;-73
2021/08/23 13:53:49;;;;;;;4.43;3.83;;;24.70;96.90;;;;;;5049437;28;20545;-73
2021/08/23 13:56:35;;;;;;;5.03;3.90;;;24.50;94.30;;;;;;5042843;28;21060;-74
2021/08/23 13:59:21;;;;;;;6.80;3.90;;;24.60;94.80;;;;;;5045873;28;20530;-74
2021/08/23 14:02:08;;;;;;;6.10;4.37;;;24.90;93.90;;;;;;5045542;28;20972;-73
2021/08/23 14:04:53;;;;;;;4.70;3.47;;;25.00;88.40;;;;;;5052393;28;20973;-73
2021/08/23 14:07:39;;;;;;;4.90;4.40;;;25.00;89.00;;;;;;5069267;22;20870;-70
2021/08/23 14:10:25;;;;;;;6.03;4.00;;;24.50;87.60;;;;;;5046109;28;20544;-70
2021/08/23 14:13:11;;;;;;;5.33;4.07;;;24.60;90.00;;;;;;5047567;28;20490;-70
2021/08/23 14:15:56;;;;;;;5.37;4.80;;;24.80;86.00;;;;;;5044311;28;20443;-70
2021/08/23 14:18:44;;;;;;;5.20;4.70;;;24.50;90.00;;;;;;5051860;28;20441;-70
2021/08/23 14:21:29;;;;;;;6.23;4.67;;;24.50;92.30;;;;;;5042476;28;20878;-70